sensor_id;sensor_type;location;lat;lon;timestamp;temperature;humidity
29207;DHT22;16247;50.840;4.382;2024-02-23T00:02:59;7.00;99.90
29207;DHT22;16247;50.840;4.382;2024-02-23T00:08:02;6.80;99.90
29207;DHT22;16247;50.840;4.382;2024-02-23T00:10:35;6.80;99.90
29207;DHT22;16247;50.840;4.382;2024-02-23T00:13:02;6.80;99.90
29207;DHT22;16247;50.840;4.382;2024-02-23T00:15:30;6.80;99.90
29207;DHT22;16247;50.840;4.382;2024-02-23T00:18:05;6.70;99.90
29207;DHT22;16247;50.840;4.382;2024-02-23T00:20:36;6.60;99.90
29207;DHT22;16247;50.840;4.382;2024-02-23T00:23:15;6.60;99.90
29207;DHT22;16247;50.840;4.382;2024-02-23T00:25:59;6.50;99.90
29207;DHT22;16247;50.840;4.382;2024-02-23T00:28:25;6.40;99.90
29207;DHT22;16247;50.840;4.382;2024-02-23T00:30:51;6.50;99.90
29207;DHT22;16247;50.840;4.382;2024-02-23T00:33:18;6.50;99.90
29207;DHT22;16247;50.840;4.382;2024-02-23T00:35:44;6.40;99.90
29207;DHT22;16247;50.840;4.382;2024-02-23T00:38:09;6.70;99.90
29207;DHT22;16247;50.840;4.382;2024-02-23T00:40:35;6.30;99.90
29207;DHT22;16247;50.840;4.382;2024-02-23T00:43:01;6.50;99.90
29207;DHT22;16247;50.840;4.382;2024-02-23T00:45:28;6.60;99.90
29207;DHT22;16247;50.840;4.382;2024-02-23T00:47:54;6.40;99.90
29207;DHT22;16247;50.840;4.382;2024-02-23T00:50:20;6.40;99.90
29207;DHT22;16247;50.840;4.382;2024-02-23T00:52:47;6.50;99.90
29207;DHT22;16247;50.840;4.382;2024-02-23T00:55:14;6.50;99.90
29207;DHT22;16247;50.840;4.382;2024-02-23T01:13:12;6.30;99.90
29207;DHT22;16247;50.840;4.382;2024-02-23T01:15:39;6.40;99.90
29207;DHT22;16247;50.840;4.382;2024-02-23T01:18:05;6.20;99.90
29207;DHT22;16247;50.840;4.382;2024-02-23T01:20:37;6.50;99.90
29207;DHT22;16247;50.840;4.382;2024-02-23T01:23:07;6.30;99.90
29207;DHT22;16247;50.840;4.382;2024-02-23T01:25:36;6.40;99.90
29207;DHT22;16247;50.840;4.382;2024-02-23T01:28:03;6.40;99.90
29207;DHT22;16247;50.840;4.382;2024-02-23T01:30:30;6.30;99.90
29207;DHT22;16247;50.840;4.382;2024-02-23T01:33:20;6.30;99.90
29207;DHT22;16247;50.840;4.382;2024-02-23T01:35:46;6.20;99.90
29207;DHT22;16247;50.840;4.382;2024-02-23T01:38:12;6.10;99.90
29207;DHT22;16247;50.840;4.382;2024-02-23T01:40:44;6.40;99.90
29207;DHT22;16247;50.840;4.382;2024-02-23T01:43:10;6.10;99.90
29207;DHT22;16247;50.840;4.382;2024-02-23T01:45:36;6.20;99.90
29207;DHT22;16247;50.840;4.382;2024-02-23T01:48:02;6.00;99.90
29207;DHT22;16247;50.840;4.382;2024-02-23T01:50:29;6.10;99.90
29207;DHT22;16247;50.840;4.382;2024-02-23T01:53:00;6.30;99.90
29207;DHT22;16247;50.840;4.382;2024-02-23T01:55:25;6.10;99.90
29207;DHT22;16247;50.840;4.382;2024-02-23T01:57:51;6.10;99.90
29207;DHT22;16247;50.840;4.382;2024-02-23T02:00:18;6.10;99.90
29207;DHT22;16247;50.840;4.382;2024-02-23T02:02:44;6.10;99.90
29207;DHT22;16247;50.840;4.382;2024-02-23T02:05:11;6.20;99.90
29207;DHT22;16247;50.840;4.382;2024-02-23T02:07:37;6.50;99.90
29207;DHT22;16247;50.840;4.382;2024-02-23T02:10:06;6.50;99.90
29207;DHT22;16247;50.840;4.382;2024-02-23T02:12:32;6.30;99.90
29207;DHT22;16247;50.840;4.382;2024-02-23T02:14:58;6.60;99.90
29207;DHT22;16247;50.840;4.382;2024-02-23T02:17:27;6.70;99.90
29207;DHT22;16247;50.840;4.382;2024-02-23T02:19:53;6.60;99.90
29207;DHT22;16247;50.840;4.382;2024-02-23T02:22:19;6.60;99.90
29207;DHT22;16247;50.840;4.382;2024-02-23T02:24:44;6.70;99.90
29207;DHT22;16247;50.840;4.382;2024-02-23T02:27:12;6.60;99.90
29207;DHT22;16247;50.840;4.382;2024-02-23T02:29:37;6.50;99.90
29207;DHT22;16247;50.840;4.382;2024-02-23T02:32:04;6.70;99.90
29207;DHT22;16247;50.840;4.382;2024-02-23T02:34:29;6.50;99.90
29207;DHT22;16247;50.840;4.382;2024-02-23T02:36:55;6.60;99.90
29207;DHT22;16247;50.840;4.382;2024-02-23T02:39:21;6.60;99.90
29207;DHT22;16247;50.840;4.382;2024-02-23T02:41:50;6.50;99.90
29207;DHT22;16247;50.840;4.382;2024-02-23T02:44:16;6.50;99.90
29207;DHT22;16247;50.840;4.382;2024-02-23T02:46:42;6.50;99.90
29207;DHT22;16247;50.840;4.382;2024-02-23T02:49:08;6.70;99.90
29207;DHT22;16247;50.840;4.382;2024-02-23T02:51:34;6.60;99.90
29207;DHT22;16247;50.840;4.382;2024-02-23T02:54:00;6.60;99.90
29207;DHT22;16247;50.840;4.382;2024-02-23T02:56:26;6.50;99.90
29207;DHT22;16247;50.840;4.382;2024-02-23T02:58:52;6.50;99.90
29207;DHT22;16247;50.840;4.382;2024-02-23T03:01:17;6.70;99.90
29207;DHT22;16247;50.840;4.382;2024-02-23T03:03:43;6.80;99.90
29207;DHT22;16247;50.840;4.382;2024-02-23T03:06:09;6.60;99.90
29207;DHT22;16247;50.840;4.382;2024-02-23T03:08:35;6.60;99.90
29207;DHT22;16247;50.840;4.382;2024-02-23T03:11:00;7.00;99.90
29207;DHT22;16247;50.840;4.382;2024-02-23T03:13:26;6.60;99.90
29207;DHT22;16247;50.840;4.382;2024-02-23T03:15:52;6.90;99.90
29207;DHT22;16247;50.840;4.382;2024-02-23T03:18:17;7.00;99.90
29207;DHT22;16247;50.840;4.382;2024-02-23T03:20:43;6.80;99.90
29207;DHT22;16247;50.840;4.382;2024-02-23T03:23:10;6.80;99.90
29207;DHT22;16247;50.840;4.382;2024-02-23T03:25:36;6.70;99.90
29207;DHT22;16247;50.840;4.382;2024-02-23T03:28:02;6.60;99.90
29207;DHT22;16247;50.840;4.382;2024-02-23T03:30:28;6.70;99.90
29207;DHT22;16247;50.840;4.382;2024-02-23T03:32:53;6.70;99.90
29207;DHT22;16247;50.840;4.382;2024-02-23T03:35:19;6.90;99.90
29207;DHT22;16247;50.840;4.382;2024-02-23T03:37:45;6.60;99.90
29207;DHT22;16247;50.840;4.382;2024-02-23T03:40:11;6.50;99.90
29207;DHT22;16247;50.840;4.382;2024-02-23T03:42:38;6.70;99.90
29207;DHT22;16247;50.840;4.382;2024-02-23T03:45:05;6.70;99.90
29207;DHT22;16247;50.840;4.382;2024-02-23T03:47:30;6.60;99.90
29207;DHT22;16247;50.840;4.382;2024-02-23T03:49:56;6.40;99.90
29207;DHT22;16247;50.840;4.382;2024-02-23T03:52:25;6.70;99.90
29207;DHT22;16247;50.840;4.382;2024-02-23T03:54:51;6.20;99.90
29207;DHT22;16247;50.840;4.382;2024-02-23T03:57:17;6.70;99.90
29207;DHT22;16247;50.840;4.382;2024-02-23T03:59:55;6.80;99.90
29207;DHT22;16247;50.840;4.382;2024-02-23T04:02:21;6.70;99.90
29207;DHT22;16247;50.840;4.382;2024-02-23T04:04:48;6.70;99.90
29207;DHT22;16247;50.840;4.382;2024-02-23T04:07:13;6.70;99.90
29207;DHT22;16247;50.840;4.382;2024-02-23T04:09:39;6.40;99.90
29207;DHT22;16247;50.840;4.382;2024-02-23T04:12:05;6.60;99.90
29207;DHT22;16247;50.840;4.382;2024-02-23T04:14:32;6.70;99.90
29207;DHT22;16247;50.840;4.382;2024-02-23T04:17:02;6.70;99.90
29207;DHT22;16247;50.840;4.382;2024-02-23T04:19:28;6.70;99.90
29207;DHT22;16247;50.840;4.382;2024-02-23T04:21:54;7.00;99.90
29207;DHT22;16247;50.840;4.382;2024-02-23T04:24:20;6.70;99.90
29207;DHT22;16247;50.840;4.382;2024-02-23T04:26:46;7.00;99.90
29207;DHT22;16247;50.840;4.382;2024-02-23T04:29:12;6.70;99.90
29207;DHT22;16247;50.840;4.382;2024-02-23T04:31:37;7.00;99.90
29207;DHT22;16247;50.840;4.382;2024-02-23T04:34:03;6.60;99.90
29207;DHT22;16247;50.840;4.382;2024-02-23T04:36:29;6.70;99.90
29207;DHT22;16247;50.840;4.382;2024-02-23T04:38:55;7.00;99.90
29207;DHT22;16247;50.840;4.382;2024-02-23T04:41:21;7.00;99.90
29207;DHT22;16247;50.840;4.382;2024-02-23T04:43:48;6.70;99.90
29207;DHT22;16247;50.840;4.382;2024-02-23T04:46:13;6.50;99.90
29207;DHT22;16247;50.840;4.382;2024-02-23T04:48:39;6.80;99.90
29207;DHT22;16247;50.840;4.382;2024-02-23T04:51:05;6.60;99.90
29207;DHT22;16247;50.840;4.382;2024-02-23T06:29:15;6.70;99.90
29207;DHT22;16247;50.840;4.382;2024-02-23T06:32:00;6.80;99.90
29207;DHT22;16247;50.840;4.382;2024-02-23T06:37:32;6.70;99.90
29207;DHT22;16247;50.840;4.382;2024-02-23T08:15:39;7.70;99.90
29207;DHT22;16247;50.840;4.382;2024-02-23T08:18:05;7.30;99.90
29207;DHT22;16247;50.840;4.382;2024-02-23T08:20:30;7.40;99.90
29207;DHT22;16247;50.840;4.382;2024-02-23T08:22:56;7.80;99.90
29207;DHT22;16247;50.840;4.382;2024-02-23T13:31:17;9.50;99.90
